Thursday, July 19, 2018, 5:48 AM GMT
Back to Local

CWNC, Cobourg, Ont.

Location: , , Canada Lat: 43.95
Local Time: 5:48 AM GMT ( 5:48 GMT) Lon: -78.167
Time Zone: GMT Elev: 255 ft

Show me the last for .
Show Coded

Time T Td Feel RH Dir Speed Gust Alt SLP Vis Weather Sky Remarks
2018-07-19 05:00 61 54 - 77 270° 2 - - 30.03 0 None
2018-07-19 04:00 60 53 - 77 360° 3 - - 30.03 0 None
2018-07-19 03:00 62 53 - 71 360° 3 - - 30.02 0 None
2018-07-19 02:00 64 56 - 76 350° 2 - - 30.02 0 None
2018-07-19 01:00 66 58 - 76 310° 2 - - 30.01 0 None
2018-07-19 00:00 68 58 - 71 260° 5 - - 30.01 0 None
2018-07-18 23:00 68 57 - 67 250° 8 - - 30.02 0 None
2018-07-18 22:00 69 57 - 65 240° 9 - - 30.01 0 None
2018-07-18 21:00 67 55 - 64 240° 10 - - 30.02 0 None
2018-07-18 20:00 69 52 - 54 240° 12 - - 30.03 0 None
2018-07-18 19:00 67 52 - 59 230° 9 - - 30.04 0 None
2018-07-18 18:00 69 52 - 54 210° 12 - - 30.05 0 None
2018-07-18 17:00 70 52 76 51 190° 9 - - 30.05 0 None
2018-07-18 16:00 69 53 - 56 190° 9 - - 30.06 0 None
2018-07-18 15:00 69 49 - 49 140° 2 - - 30.06 0 None
2018-07-18 14:00 69 45 - 42 90° 3 - - 30.06 0 None
2018-07-18 13:00 67 45 - 45 60° 6 - - 30.06 0 None
2018-07-18 12:00 64 49 - 56 40° 5 - - 30.05 0 None
2018-07-18 11:00 61 49 - 65 20° 2 - - 30.04 0 None
2018-07-18 10:00 60 51 - 70 360° 2 - - 30.03 0 None
2018-07-18 09:00 62 52 - 68 20° 3 - - 29.99 0 None
2018-07-18 08:00 64 53 - 67 30° 5 - - 29.97 0 None
2018-07-18 07:00 65 53 - 66 20° 5 - - 29.95 0 None
2018-07-18 06:00 67 54 - 63 20° 5 - - 29.93 0 None

Support USWX by starting your Amazon purchase here.